Flight Track Log - Related Links

Times and Time Zones

All times are in EST time to prevent confusion due to time zone crossing. See the FDX1304 flight status page for this flight to view local times or setup timezone preferences in your user account.

Time Position Orientation Groundspeed Altitude Reporting Facility
EST Latitude Longitude Course Direction KTS MPH feet Rate Location/Type
Sat 12:38:15 AM 41.6361 -86.4430 197° South 269 310 6,700  Level FlightAware ADS-B
Sat 12:38:33 AM 41.6075 -86.4542 196° South 274 315 7,700 3,409 Climbing FlightAware ADS-B
Sat 12:38:59 AM 41.5771 -86.4662 196° South 282 325 9,200 2,906 Climbing FlightAware ADS-B
Sat 12:39:37 AM 41.5254 -86.4860 196° South 312 359 10,800 2,024 Climbing FlightAware ADS-B
Sat 12:40:22 AM 41.4565 -86.5117 196° South 364 419 12,000 2,214 Climbing FlightAware ADS-B
Sat 12:41:01 AM 41.3936 -86.5351 196° South 371 427 13,900 2,775 Climbing FlightAware ADS-B
Sat 12:41:42 AM 41.3229 -86.5614 196° South 385 443 15,700 2,561 Climbing FlightAware ADS-B
Sat 12:42:23 AM 41.2510 -86.5882 196° South 402 463 17,400 2,634 Climbing FlightAware ADS-B
Sat 12:43:04 AM 41.1762 -86.6158 196° South 412 474 19,300 2,370 Climbing FlightAware ADS-B
Sat 12:43:44 AM 41.1009 -86.6439 196° South 437 503 20,600 1,976 Climbing FlightAware ADS-B
Sat 12:44:26 AM 41.0175 -86.6747 196° South 453 521 22,000 2,122 Climbing FlightAware ADS-B
Sat 12:45:06 AM 40.9342 -86.7051 195° South 466 536 23,500 2,104 Climbing FlightAware ADS-B
Sat 12:45:43 AM 40.8571 -86.7333 195° South 488 562 24,700 1,929 Climbing FlightAware ADS-B
Sat 12:46:30 AM 40.7521 -86.7723 196° South 508 585 26,200 1,909 Climbing FlightAware ADS-B
Sat 12:47:11 AM 40.6829 -86.7974 195° South 516 594 27,500 1,974 Climbing FlightAware ADS-B
Sat 12:47:46 AM 40.5764 -86.8362 196° South 525 604 28,700 2,475 Climbing FlightAware ADS-B
Sat 12:48:31 AM 40.4704 -86.8744 195° South 517 595 30,800 3,035 Climbing FlightAware ADS-B
Sat 12:49:11 AM 40.3802 -86.9072 196° South 501 577 33,000 3,075 Climbing FlightAware ADS-B
Sat 12:49:51 AM 40.2923 -86.9392 196° South 489 563 34,900 2,222 Climbing FlightAware ADS-B
Sat 12:50:32 AM 40.2031 -86.9713 195° South 482 555 36,000 815 Climbing FlightAware ADS-B
Sat 12:51:12 AM 40.1168 -87.0023 195° South 479 551 36,000  Level FlightAware ADS-B
Sat 12:52:04 AM 40.0069 -87.0413 195° South 481 554 36,000  Level FlightAware ADS-B
Sat 12:52:52 AM 39.9024 -87.0789 195° South 485 558 36,000  Level FlightAware ADS-B
Sat 12:53:32 AM 39.8162 -87.1090 195° South 487 560 36,000  Level FlightAware ADS-B
Sat 12:54:09 AM 39.7680 -87.1267 196° South 487 560 36,000  Level FlightAware ADS-B
Sat 12:54:47 AM 39.6516 -87.1676 195° South 488 562 36,000  Level FlightAware ADS-B
Sat 12:55:29 AM 39.5614 -87.1992 195° South 488 562 36,000  Level FlightAware ADS-B
Sat 12:56:07 AM 39.4859 -87.2261 195° South 488 562 36,000  Level FlightAware ADS-B
Sat 12:57:52 AM 39.2493 -87.3089 195° South 489 563 36,000  Level FlightAware ADS-B
Sat 12:58:45 AM 39.1622 -87.3400 195° South 488 562 36,000  Level Chicago Center
Sat 12:59:38 AM 39.0408 -87.3806 195° South 488 562 36,000  Level Indianapolis Center
Sat 01:00:38 AM 38.9100 -87.4261 195° South 485 558 36,000  Level Indianapolis Center
Sat 01:01:38 AM 38.7794 -87.4722 195° South 487 560 36,000  Level Indianapolis Center
Sat 01:02:39 AM 38.6483 -87.5161 195° South 487 560 36,000  Level Indianapolis Center
Sat 01:03:39 AM 38.5181 -87.5617 195° South 487 560 36,000  Level Indianapolis Center
Sat 01:04:39 AM 38.3869 -87.6067 195° South 489 563 36,000  Level Indianapolis Center
Sat 01:05:40 AM 38.2569 -87.6503 195° South 486 559 36,000  Level Indianapolis Center
Sat 01:06:40 AM 38.1253 -87.6942 195° South 489 563 36,000  Level Indianapolis Center
Sat 01:07:40 AM 37.9933 -87.7392 195° South 490 564 36,000  Level Indianapolis Center
Sat 01:08:40 AM 37.8842 -87.8256 212° Southwest 464 534 36,000  Level Indianapolis Center
Sat 01:09:41 AM 37.8003 -87.9456 229° Southwest 453 521 36,000  Level Indianapolis Center
Sat 01:10:41 AM 37.7142 -88.0700 229° Southwest 450 518 36,000  Level Indianapolis Center
Sat 01:11:41 AM 37.6336 -88.1883 229° Southwest 442 509 36,000  Level Indianapolis Center
Sat 01:12:42 AM 37.5544 -88.3014 229° Southwest 446 513 36,000  Level Indianapolis Center
Sat 01:13:42 AM 37.4664 -88.4242 228° Southwest 448 516 36,000  Level Indianapolis Center
Sat 01:14:42 AM 37.3672 -88.5239 219° Southwest 454 522 36,000  Level Indianapolis Center
Sat 01:15:42 AM 37.2625 -88.6069 212° Southwest 463 533 36,000  Level Indianapolis Center
Sat 01:16:43 AM 37.1489 -88.6978 213° Southwest 459 528 36,000  Level Indianapolis Center
Sat 01:17:43 AM 37.0394 -88.7856 213° Southwest 461 531 36,000  Level Indianapolis Center
Sat 01:18:43 AM 36.9286 -88.8742 213° Southwest 466 536 36,000  Level Indianapolis Center
Sat 01:20:05 AM 36.7800 -88.9919 212° Southwest 465 535 36,000 -423 Level Memphis Center
Sat 01:21:05 AM 36.6697 -89.0800 213° Southwest 469 540 35,000 -2,200 Descending Memphis Center
Sat 01:22:05 AM 36.5606 -89.1664 212° Southwest 466 536 31,600 -3,800 Descending Memphis Center
Sat 01:23:05 AM 36.4383 -89.2619 212° Southwest 472 543 27,400 -3,669 Descending Memphis Center
Sat 01:24:06 AM 36.3264 -89.3489 212° Southwest 472 543 24,200 -3,025 Descending Memphis Center
Sat 01:25:06 AM 36.2194 -89.4325 212° Southwest 462 532 21,300 -2,850 Descending Memphis Center
Sat 01:26:06 AM 36.1194 -89.5100 212° Southwest 433 498 18,500 -2,727 Descending Memphis Center
Sat 01:27:07 AM 36.0206 -89.5869 212° Southwest 423 487 15,800 -2,678 Descending Memphis Center
Sat 01:28:07 AM 35.9258 -89.6606 212° Southwest 409 471 13,100 -2,550 Descending Memphis Center
Sat 01:29:07 AM 35.8350 -89.7297 212° Southwest 390 449 10,700 -1,450 Descending Memphis Center
Sat 01:30:07 AM 35.7592 -89.7872 212° Southwest 321 369 10,200 -496 Descending Memphis Center
Sat 01:31:08 AM 35.6944 -89.8281 207° Southwest 275 316 9,700 -694 Descending Memphis Center
Sat 01:32:08 AM 35.6233 -89.8419 189° South 286 329 8,800 -1,150 Descending Memphis Center
Sat 01:33:08 AM 35.5472 -89.8589 190° South 279 321 7,400 -1,400 Descending Memphis Center
Sat 01:34:08 AM 35.4703 -89.8611 181° South 274 315 6,000 -694 Descending Memphis Center
Sat 01:35:09 AM 35.3925 -89.8514 174° South 278 320 6,000  Level Memphis Center
Sat 01:36:09 AM 35.3161 -89.8517 180° South 274 315 6,000  Level Memphis Center
Sat 01:37:09 AM 35.2383 -89.8506 179° South 275 316 6,000 -50 Level Memphis Center
Sat 01:38:09 AM 35.1614 -89.8500 180° South 274 315 5,900  Descending Memphis Center
Sat 01:39:09 AM 35.0922 -89.8478 178° South 256 295 6,000 -645 Climbing Memphis Center
Sat 01:40:10 AM 35.0258 -89.8458 179° South 241 277 4,600 -1,686 Descending Memphis Center
Sat 01:41:10 AM 34.9622 -89.8456 180° South 233 268 2,600 -1,300 Descending Memphis Center
Sat 01:42:10 AM 34.9192 -89.8800 213° Southwest 211 243 2,000 -326 Descending Memphis Center
Sat 01:42:42 AM 34.9000 -89.9167 237° Southwest 166 191 2,100 70 Climbing KMEM
Sat 01:43:36 AM 34.9000 -89.9500 270° West 167 192 2,100 -53 Level KMEM
Sat 01:44:36 AM 34.9500 -89.9667 345° North 162 186 2,000 -400 Descending KMEM
Sat 01:45:36 AM 34.9833 -89.9667 360° North 113 130 1,300 -700 Descending KMEM
Sat 01:46:36 AM 35.0167 -89.9667 360° North 116 133 600 -700 Descending KMEM
Sat 01:49:00 AM 35.0333 -89.9667 345° North  Level FlightAware Approximate

Login

Don't have an account? Register now (free) for customized features, flight alerts, and more!